createdAt,value
2023-05-06T00:00:35.361Z,21.4
2023-05-06T00:20:34.599Z,21.3
2023-05-06T00:40:34.717Z,21.3
2023-05-06T01:00:39.062Z,21.1
2023-05-06T01:20:35.112Z,21.1
2023-05-06T01:40:35.443Z,21.1
2023-05-06T02:00:35.983Z,21
2023-05-06T02:20:36.675Z,20.9
2023-05-06T02:40:38.045Z,20.8
2023-05-06T03:00:38.628Z,20.8
2023-05-06T03:20:35.000Z,20.8
2023-05-06T03:40:35.572Z,20.7
2023-05-06T04:00:35.389Z,20.6
2023-05-06T04:20:53.749Z,20.6
2023-05-06T04:40:53.844Z,20.6
2023-05-06T05:00:51.938Z,20.6
2023-05-06T05:20:52.741Z,20.6
2023-05-06T05:40:53.907Z,20.6
2023-05-06T06:00:52.914Z,20.6
2023-05-06T06:20:56.742Z,20.7
2023-05-06T06:40:55.232Z,20.7
2023-05-06T07:00:54.474Z,20.7
2023-05-06T07:20:52.868Z,20.8
2023-05-06T07:40:52.108Z,20.9
2023-05-06T08:00:52.358Z,21
2023-05-06T08:21:00.414Z,21.1
2023-05-06T08:40:58.276Z,21.2
2023-05-06T09:00:56.758Z,21.3
2023-05-06T09:20:53.320Z,21.2
2023-05-06T09:40:52.598Z,21.1
2023-05-06T10:00:52.225Z,21.1
2023-05-06T10:20:52.235Z,21.3
2023-05-06T10:40:53.475Z,21.4
2023-05-06T11:00:58.426Z,21.5
2023-05-06T11:20:52.251Z,21.5
2023-05-06T11:40:59.272Z,21.6
2023-05-06T12:00:54.643Z,21.6
2023-05-06T12:20:58.219Z,21.8
2023-05-06T12:40:58.408Z,21.9
2023-05-06T13:00:56.430Z,21.9
2023-05-06T13:20:56.167Z,22
2023-05-06T13:40:52.682Z,22
2023-05-06T14:00:57.754Z,22.2
2023-05-06T14:20:53.223Z,22.2
2023-05-06T14:40:59.495Z,22.4
2023-05-06T15:00:52.675Z,22.4
2023-05-06T15:20:56.536Z,22.6
2023-05-06T15:40:53.428Z,22.6
2023-05-06T16:00:51.356Z,22.7
2023-05-06T16:20:58.495Z,22.8
2023-05-06T16:40:53.161Z,22.8
2023-05-06T17:00:52.522Z,22.9
2023-05-06T17:21:12.930Z,22.8
2023-05-06T17:40:55.467Z,22.9
2023-05-06T18:00:54.004Z,22.9
2023-05-06T18:20:57.055Z,22.5
2023-05-06T18:40:58.047Z,22.2
2023-05-06T19:00:36.429Z,22.2
2023-05-06T19:20:35.226Z,22.3
2023-05-06T19:40:35.533Z,22.3
2023-05-06T20:00:36.591Z,22.1
2023-05-06T20:20:38.370Z,21.7
2023-05-06T20:40:35.122Z,21.7
2023-05-06T21:00:35.681Z,21.5
2023-05-06T21:20:34.587Z,21.3
2023-05-06T21:40:35.401Z,21.2
2023-05-06T22:00:49.017Z,21
2023-05-06T22:20:35.171Z,21.1
2023-05-06T22:40:35.665Z,21
2023-05-06T23:00:34.841Z,20.9
2023-05-06T23:20:38.549Z,20.7
2023-05-06T23:40:38.835Z,20.5
